Terminal Aerodrome Forecast
Issued by NWS

Home | Current Version | Previous Version | Graphics & Text | Print | Product List | Glossary On
Versions: 1 2 3 4 5 6 7 8 9 10 11 12 13 14 15 16 17
936
FTUS41 KCLE 041739
TAFFDY
TAF
KFDY 041739Z 0418/0518 25010KT P6SM SCT015 OVC030
      TEMPO 0419/0421 BKN015 OVC030
     FM050200 27009KT P6SM SKC
     FM051100 22005KT P6SM BKN060=

USA.gov is the U.S. government's official web portal to all federal, state and local government web resources and services.